createdAt,value
2018-10-17T00:00:50.034Z,986.520
2018-10-17T00:02:50.215Z,986.519
2018-10-17T00:04:49.865Z,986.532
2018-10-17T00:06:50.198Z,986.520
2018-10-17T00:08:50.379Z,986.528
2018-10-17T00:10:49.657Z,986.568
2018-10-17T00:12:49.848Z,986.562
2018-10-17T00:14:50.030Z,986.528
2018-10-17T00:16:50.395Z,986.517
2018-10-17T00:18:49.632Z,986.506
2018-10-17T00:20:49.911Z,986.476
2018-10-17T00:22:50.060Z,986.473
2018-10-17T00:24:50.294Z,986.446
2018-10-17T00:26:49.982Z,986.408
2018-10-17T00:28:50.158Z,986.396
2018-10-17T00:30:50.286Z,986.382
2018-10-17T00:32:50.669Z,986.382
2018-10-17T00:34:50.047Z,986.376
2018-10-17T00:36:50.435Z,986.376
2018-10-17T00:38:49.868Z,986.341
2018-10-17T00:40:49.982Z,986.337
2018-10-17T00:42:50.114Z,986.342
2018-10-17T00:44:50.231Z,986.331
2018-10-17T00:46:49.619Z,986.323
2018-10-17T00:48:49.786Z,986.328
2018-10-17T00:50:49.919Z,986.329
2018-10-17T00:52:50.038Z,986.317
2018-10-17T00:54:50.184Z,986.316
2018-10-17T00:56:50.543Z,986.313
2018-10-17T00:58:49.812Z,986.324
2018-10-17T01:00:49.938Z,986.331
2018-10-17T01:02:50.052Z,986.356
2018-10-17T01:04:50.567Z,986.373
2018-10-17T01:06:50.145Z,986.374
2018-10-17T01:08:50.420Z,986.378
2018-10-17T01:10:50.551Z,986.378
2018-10-17T01:12:50.107Z,986.432
2018-10-17T01:14:50.390Z,986.479
2018-10-17T01:16:49.892Z,986.503
2018-10-17T01:18:50.110Z,986.527
2018-10-17T01:20:50.347Z,986.545
2018-10-17T01:22:50.591Z,986.552
2018-10-17T01:24:49.911Z,986.578
2018-10-17T01:26:50.340Z,986.582
2018-10-17T01:28:49.727Z,986.583
2018-10-17T01:30:49.941Z,986.569
2018-10-17T01:32:50.161Z,986.566
2018-10-17T01:34:50.592Z,986.585
2018-10-17T01:36:50.188Z,986.583
2018-10-17T01:38:50.354Z,986.579
2018-10-17T01:40:50.545Z,986.550
2018-10-17T01:42:49.848Z,986.523
2018-10-17T01:44:50.032Z,986.499
2018-10-17T01:46:50.463Z,986.484
2018-10-17T01:48:49.786Z,986.468
2018-10-17T01:50:49.927Z,986.469
2018-10-17T01:52:50.083Z,986.463
2018-10-17T01:54:50.221Z,986.460
2018-10-17T01:56:50.471Z,986.437
2018-10-17T01:58:49.639Z,986.429
2018-10-17T02:00:50.043Z,986.413
2018-10-17T02:02:50.208Z,986.421
2018-10-17T02:04:49.635Z,986.427
2018-10-17T02:06:50.164Z,986.441
2018-10-17T02:08:50.440Z,986.468
2018-10-17T02:10:49.687Z,986.477
2018-10-17T02:12:49.932Z,986.493
2018-10-17T02:14:50.161Z,986.545
2018-10-17T02:16:50.505Z,986.545
2018-10-17T02:18:49.687Z,986.620
2018-10-17T02:20:49.817Z,986.616
2018-10-17T02:22:49.959Z,986.579
2018-10-17T02:24:50.077Z,986.569
2018-10-17T02:26:50.390Z,986.569
2018-10-17T02:28:49.705Z,986.557
2018-10-17T02:30:49.975Z,986.531
2018-10-17T02:32:50.250Z,986.484
2018-10-17T02:34:50.078Z,986.478
2018-10-17T02:36:50.463Z,986.448
2018-10-17T02:38:49.678Z,986.428
2018-10-17T02:40:50.051Z,986.428
2018-10-17T02:42:50.350Z,986.409
2018-10-17T02:44:49.646Z,986.401
2018-10-17T02:46:50.070Z,986.394
2018-10-17T02:48:50.275Z,986.386
2018-10-17T02:50:50.481Z,986.393
2018-10-17T02:52:49.754Z,986.387
2018-10-17T02:54:49.885Z,986.389
2018-10-17T02:56:50.250Z,986.385
2018-10-17T02:58:50.383Z,986.384
2018-10-17T03:00:49.625Z,986.357
2018-10-17T03:02:49.843Z,986.366
2018-10-17T03:04:50.324Z,986.400
2018-10-17T03:06:49.899Z,986.441
2018-10-17T03:08:50.075Z,986.457
2018-10-17T03:10:50.295Z,986.459
2018-10-17T03:12:49.756Z,986.466
2018-10-17T03:14:49.943Z,986.502
2018-10-17T03:16:50.312Z,986.519
2018-10-17T03:18:50.584Z,986.557
2018-10-17T03:20:49.913Z,986.576
2018-10-17T03:22:50.082Z,986.603
2018-10-17T03:24:50.253Z,986.597
2018-10-17T03:26:49.760Z,986.566
2018-10-17T03:28:49.996Z,986.549
2018-10-17T03:30:50.331Z,986.544
2018-10-17T03:32:49.632Z,986.529
2018-10-17T03:34:50.292Z,986.514
2018-10-17T03:36:50.599Z,986.509
2018-10-17T03:38:49.973Z,986.500
2018-10-17T03:40:50.171Z,986.491
2018-10-17T03:42:50.415Z,986.492
2018-10-17T03:44:49.766Z,986.511
2018-10-17T03:46:50.102Z,986.529
2018-10-17T03:48:50.309Z,986.542
2018-10-17T03:50:50.492Z,986.560
2018-10-17T03:52:49.838Z,986.576
2018-10-17T03:54:50.081Z,986.600
2018-10-17T03:56:50.522Z,986.610
2018-10-17T03:58:49.652Z,986.631
2018-10-17T04:00:49.957Z,986.659
2018-10-17T04:02:50.308Z,986.655
2018-10-17T04:04:50.187Z,986.645
2018-10-17T04:06:50.484Z,986.650
2018-10-17T04:08:49.835Z,986.657
2018-10-17T04:10:50.038Z,986.657
2018-10-17T04:12:50.280Z,986.651
2018-10-17T04:14:49.639Z,986.686
2018-10-17T04:16:49.935Z,986.700
2018-10-17T04:18:50.109Z,986.701
2018-10-17T04:20:50.454Z,986.693
2018-10-17T04:22:49.768Z,986.702
2018-10-17T04:24:49.978Z,986.731
2018-10-17T04:26:49.775Z,986.743
2018-10-17T04:28:49.993Z,986.780
2018-10-17T04:30:50.235Z,986.787
2018-10-17T04:32:49.704Z,986.801
2018-10-17T04:34:50.185Z,986.801
2018-10-17T04:36:50.509Z,986.767
2018-10-17T04:38:49.887Z,986.735
2018-10-17T04:40:50.199Z,986.731
2018-10-17T04:42:50.384Z,986.724
2018-10-17T04:44:49.789Z,986.721
2018-10-17T04:46:50.148Z,986.708
2018-10-17T04:48:50.272Z,986.700
2018-10-17T04:50:50.480Z,986.698
2018-10-17T04:52:49.686Z,986.700
2018-10-17T04:54:49.889Z,986.736
2018-10-17T04:56:50.295Z,986.752
2018-10-17T04:58:50.591Z,986.770
2018-10-17T05:00:49.890Z,986.779
2018-10-17T05:02:50.039Z,986.811
2018-10-17T05:04:50.376Z,986.827
2018-10-17T05:06:50.175Z,986.802
2018-10-17T05:08:49.946Z,986.796
2018-10-17T05:10:50.108Z,986.763
2018-10-17T05:12:50.327Z,986.772
2018-10-17T05:14:50.490Z,986.789
2018-10-17T05:16:49.838Z,986.826
2018-10-17T05:18:49.949Z,986.821
2018-10-17T05:20:50.097Z,986.834
2018-10-17T05:22:50.275Z,986.842
2018-10-17T05:24:50.358Z,986.847
2018-10-17T05:26:50.078Z,986.829
2018-10-17T05:28:50.180Z,986.833
2018-10-17T05:30:50.353Z,986.836
2018-10-17T05:32:50.519Z,986.869
2018-10-17T05:34:50.264Z,986.869
2018-10-17T05:36:50.245Z,986.872
2018-10-17T05:38:50.408Z,986.882
2018-10-17T05:40:49.659Z,986.894
2018-10-17T05:42:49.856Z,986.891
2018-10-17T05:44:50.034Z,986.901
2018-10-17T05:46:50.436Z,986.922
2018-10-17T05:48:49.741Z,986.921
2018-10-17T05:50:49.786Z,986.917
2018-10-17T05:52:49.988Z,986.912
2018-10-17T05:54:50.274Z,986.960
2018-10-17T05:56:49.635Z,986.978
2018-10-17T05:58:49.781Z,986.976
2018-10-17T06:00:50.002Z,986.972
2018-10-17T06:02:50.224Z,986.974
2018-10-17T06:04:49.793Z,986.981
2018-10-17T06:06:50.185Z,986.976
2018-10-17T06:08:50.419Z,986.958
2018-10-17T06:10:49.644Z,986.952
2018-10-17T06:12:49.842Z,986.935
2018-10-17T06:14:50.005Z,986.931
2018-10-17T06:16:50.556Z,986.938
2018-10-17T06:18:50.259Z,986.952
2018-10-17T06:20:50.414Z,986.963
2018-10-17T06:22:49.744Z,986.988
2018-10-17T06:24:49.881Z,987.018
2018-10-17T06:26:50.234Z,987.028
2018-10-17T06:28:50.396Z,987.041
2018-10-17T06:30:50.115Z,987.045
2018-10-17T06:32:50.069Z,987.039
2018-10-17T06:34:50.975Z,987.056
2018-10-17T06:36:49.957Z,987.072
2018-10-17T06:38:50.086Z,987.083
2018-10-17T06:40:50.267Z,987.069
2018-10-17T06:42:49.625Z,987.092
2018-10-17T06:44:49.919Z,987.094
2018-10-17T06:46:50.163Z,987.090
2018-10-17T06:48:50.471Z,987.108
2018-10-17T06:50:49.689Z,987.122
2018-10-17T06:52:50.006Z,987.160
2018-10-17T06:54:50.166Z,987.194
2018-10-17T06:56:50.538Z,987.191
2018-10-17T06:58:49.809Z,987.186
2018-10-17T07:00:49.947Z,987.162
2018-10-17T07:02:50.227Z,987.153
2018-10-17T07:04:49.935Z,987.146
2018-10-17T07:06:50.211Z,987.158
2018-10-17T07:08:50.334Z,987.158
2018-10-17T07:10:50.462Z,987.157
2018-10-17T07:12:49.829Z,987.160
2018-10-17T07:14:49.987Z,987.128
2018-10-17T07:16:50.377Z,987.146
2018-10-17T07:18:50.547Z,987.150
2018-10-17T07:20:49.730Z,987.146
2018-10-17T07:22:49.891Z,987.147
2018-10-17T07:24:50.091Z,987.134
2018-10-17T07:26:50.425Z,987.131
2018-10-17T07:28:50.991Z,987.123
2018-10-17T07:30:49.874Z,987.150
2018-10-17T07:32:50.068Z,987.177
2018-10-17T07:34:50.480Z,987.187
2018-10-17T07:36:49.769Z,987.198
2018-10-17T07:38:49.942Z,987.202
2018-10-17T07:40:50.082Z,987.193
2018-10-17T07:42:50.325Z,987.184
2018-10-17T07:44:50.569Z,987.178
2018-10-17T07:46:49.889Z,987.183
2018-10-17T07:48:50.128Z,987.199
2018-10-17T07:50:50.267Z,987.206
2018-10-17T07:52:50.803Z,987.230
2018-10-17T07:54:50.251Z,987.229
2018-10-17T07:56:50.554Z,987.232
2018-10-17T07:58:49.888Z,987.221
2018-10-17T08:00:50.033Z,987.183
2018-10-17T08:02:50.310Z,987.144
2018-10-17T08:04:50.055Z,987.140
2018-10-17T08:06:50.366Z,987.144
2018-10-17T08:08:50.440Z,987.135
2018-10-17T08:10:49.617Z,987.123
2018-10-17T08:12:49.868Z,987.116
2018-10-17T08:14:50.039Z,987.135
2018-10-17T08:16:50.300Z,987.175
2018-10-17T08:18:50.417Z,987.176
2018-10-17T08:20:49.639Z,987.157
2018-10-17T08:22:49.784Z,987.155
2018-10-17T08:24:50.009Z,987.148
2018-10-17T08:26:50.322Z,987.142
2018-10-17T08:28:50.456Z,987.143
2018-10-17T08:30:49.681Z,987.128
2018-10-17T08:32:49.857Z,987.122
2018-10-17T08:34:50.417Z,987.084
2018-10-17T08:36:51.109Z,987.078
2018-10-17T08:38:50.264Z,987.097
2018-10-17T08:40:50.603Z,987.086
2018-10-17T08:42:50.017Z,987.086
2018-10-17T08:44:50.348Z,987.086
2018-10-17T08:46:49.957Z,987.049
2018-10-17T08:48:50.151Z,987.047
2018-10-17T08:50:50.714Z,987.050
2018-10-17T08:52:49.623Z,987.027
2018-10-17T08:54:49.913Z,987.027
2018-10-17T08:56:50.408Z,987.016
2018-10-17T08:58:50.609Z,987.003
2018-10-17T09:00:49.733Z,987.003
2018-10-17T09:02:49.850Z,987.039
2018-10-17T09:04:50.154Z,987.041
2018-10-17T09:06:50.576Z,987.024
2018-10-17T09:08:49.756Z,987.015
2018-10-17T09:10:49.861Z,987.005
2018-10-17T09:12:49.984Z,986.981
2018-10-17T09:14:50.096Z,986.942
2018-10-17T09:16:50.751Z,986.918
2018-10-17T09:18:49.872Z,986.912
2018-10-17T09:20:51.660Z,986.906
2018-10-17T09:22:49.739Z,986.894
2018-10-17T09:24:49.888Z,986.895
2018-10-17T09:26:50.297Z,986.886
2018-10-17T09:28:50.461Z,986.893
2018-10-17T09:30:49.741Z,986.895
2018-10-17T09:32:50.049Z,986.886
2018-10-17T09:34:49.884Z,986.871
2018-10-17T09:36:50.269Z,986.871
2018-10-17T09:38:50.549Z,986.871
2018-10-17T09:40:49.753Z,986.895
2018-10-17T09:42:50.145Z,986.877
2018-10-17T09:44:50.530Z,986.859
2018-10-17T09:46:49.897Z,986.820
2018-10-17T09:48:50.061Z,986.797
2018-10-17T09:50:50.270Z,986.785
2018-10-17T09:52:50.472Z,986.732
2018-10-17T09:54:49.676Z,986.718
2018-10-17T09:56:50.106Z,986.685
2018-10-17T09:58:50.336Z,986.694
2018-10-17T10:00:50.533Z,986.692
2018-10-17T10:02:49.740Z,986.681
2018-10-17T10:04:50.118Z,986.649
2018-10-17T10:06:50.467Z,986.641
2018-10-17T10:08:49.689Z,986.629
2018-10-17T10:10:49.920Z,986.616
2018-10-17T10:12:50.191Z,986.611
2018-10-17T10:14:50.327Z,986.610
2018-10-17T10:16:49.717Z,986.610
2018-10-17T10:18:49.882Z,986.582
2018-10-17T10:20:50.079Z,986.573
2018-10-17T10:22:50.264Z,986.547
2018-10-17T10:24:50.656Z,986.538
2018-10-17T10:26:49.677Z,986.538
2018-10-17T10:28:49.799Z,986.506
2018-10-17T10:30:49.963Z,986.513
2018-10-17T10:32:50.180Z,986.500
2018-10-17T10:34:49.720Z,986.501
2018-10-17T10:36:50.134Z,986.472
2018-10-17T10:38:50.305Z,986.425
2018-10-17T10:40:50.507Z,986.384
2018-10-17T10:42:49.743Z,986.384
2018-10-17T10:44:50.193Z,986.337
2018-10-17T10:46:49.795Z,986.291
2018-10-17T10:48:50.063Z,986.298
2018-10-17T10:50:50.132Z,986.278
2018-10-17T10:52:50.366Z,986.255
2018-10-17T10:54:49.973Z,986.276
2018-10-17T10:56:50.455Z,986.276
2018-10-17T10:58:51.479Z,986.222
2018-10-17T11:00:49.626Z,986.229
2018-10-17T11:02:49.816Z,986.241
2018-10-17T11:04:50.678Z,986.241
2018-10-17T11:06:49.714Z,986.229
2018-10-17T11:08:49.886Z,986.189
2018-10-17T11:10:50.095Z,986.170
2018-10-17T11:12:50.231Z,986.132
2018-10-17T11:14:50.839Z,986.120
2018-10-17T11:16:50.158Z,986.074
2018-10-17T11:18:50.308Z,986.067
2018-10-17T11:20:50.441Z,986.013
2018-10-17T11:22:50.502Z,985.969
2018-10-17T11:24:49.667Z,985.959
2018-10-17T11:26:50.046Z,985.909
2018-10-17T11:28:50.168Z,985.894
2018-10-17T11:30:50.295Z,985.852
2018-10-17T11:32:50.573Z,985.844
2018-10-17T11:34:50.103Z,985.805
2018-10-17T11:36:50.400Z,985.779
2018-10-17T11:38:49.622Z,985.722
2018-10-17T11:40:50.032Z,985.671
2018-10-17T11:42:50.402Z,985.668
2018-10-17T11:44:50.613Z,985.666
2018-10-17T11:46:49.943Z,985.666
2018-10-17T11:48:50.150Z,985.657
2018-10-17T11:50:50.292Z,985.617
2018-10-17T11:52:50.425Z,985.617
2018-10-17T11:54:50.578Z,985.563
2018-10-17T11:56:49.923Z,985.538
2018-10-17T11:58:50.114Z,985.498
2018-10-17T12:00:50.277Z,985.454
2018-10-17T12:02:50.407Z,985.417
2018-10-17T12:04:50.710Z,985.417
2018-10-17T12:06:49.971Z,985.371
2018-10-17T12:08:50.167Z,985.356
2018-10-17T12:10:50.413Z,985.317
2018-10-17T12:12:49.633Z,985.245
2018-10-17T12:14:49.806Z,985.236
2018-10-17T12:16:50.311Z,985.214
2018-10-17T12:18:50.555Z,985.191
2018-10-17T12:20:49.973Z,985.152
2018-10-17T12:22:49.626Z,985.156
2018-10-17T12:24:49.745Z,985.136
2018-10-17T12:26:50.056Z,985.118
2018-10-17T12:28:50.593Z,985.098
2018-10-17T12:30:50.595Z,985.086
2018-10-17T12:32:49.824Z,985.080
2018-10-17T12:34:50.341Z,985.066
2018-10-17T12:36:49.850Z,985.057
2018-10-17T12:38:50.132Z,985.030
2018-10-17T12:40:50.496Z,985.028
2018-10-17T12:42:49.737Z,985.029
2018-10-17T12:44:50.025Z,985.028
2018-10-17T12:46:49.614Z,985.017
2018-10-17T12:48:49.812Z,985.025
2018-10-17T12:50:49.968Z,985.015
2018-10-17T12:52:50.920Z,985.017
2018-10-17T12:54:50.358Z,984.989
2018-10-17T12:56:49.786Z,984.998
2018-10-17T12:58:49.895Z,984.986
2018-10-17T13:00:50.019Z,984.973
2018-10-17T13:02:50.153Z,984.973
2018-10-17T13:04:49.679Z,984.965
2018-10-17T13:06:49.999Z,984.965
2018-10-17T13:08:50.148Z,984.959
2018-10-17T13:10:50.484Z,984.910
2018-10-17T13:12:49.747Z,984.915
2018-10-17T13:14:49.882Z,984.929
2018-10-17T13:16:50.424Z,984.929
2018-10-17T13:18:49.650Z,984.918
2018-10-17T13:20:49.857Z,984.908
2018-10-17T13:22:49.990Z,984.899
2018-10-17T13:24:50.207Z,984.887
2018-10-17T13:26:50.575Z,984.871
2018-10-17T13:28:49.759Z,984.834
2018-10-17T13:30:49.844Z,984.818
2018-10-17T13:32:50.006Z,984.814
2018-10-17T13:34:50.386Z,984.801
2018-10-17T13:36:49.670Z,984.794
2018-10-17T13:38:49.845Z,984.774
2018-10-17T13:40:50.031Z,984.735
2018-10-17T13:42:50.146Z,984.671
2018-10-17T13:44:50.288Z,984.636
2018-10-17T13:46:49.666Z,984.623
2018-10-17T13:48:49.896Z,984.621
2018-10-17T13:50:50.410Z,984.618
2018-10-17T13:52:50.492Z,984.610
2018-10-17T13:54:50.310Z,984.577
2018-10-17T13:56:50.478Z,984.568
2018-10-17T13:58:49.633Z,984.551
2018-10-17T14:00:49.799Z,984.559
2018-10-17T14:02:49.961Z,984.559
2018-10-17T14:04:50.406Z,984.573
2018-10-17T14:06:49.880Z,984.571
2018-10-17T14:08:50.036Z,984.573
2018-10-17T14:10:50.216Z,984.584
2018-10-17T14:12:50.342Z,984.606
2018-10-17T14:14:50.522Z,984.606
2018-10-17T14:16:49.895Z,984.614
2018-10-17T14:18:50.166Z,984.608
2018-10-17T14:20:50.286Z,984.602
2018-10-17T14:22:49.673Z,984.590
2018-10-17T14:24:49.803Z,984.577
2018-10-17T14:26:50.017Z,984.584
2018-10-17T14:28:50.174Z,984.592
2018-10-17T14:30:50.324Z,984.574
2018-10-17T14:32:49.681Z,984.568
2018-10-17T14:34:50.257Z,984.596
2018-10-17T14:36:50.569Z,984.597
2018-10-17T14:38:49.802Z,984.600
2018-10-17T14:40:50.500Z,984.609
2018-10-17T14:42:50.361Z,984.611
2018-10-17T14:44:50.544Z,984.608
2018-10-17T14:46:50.052Z,984.607
2018-10-17T14:48:50.265Z,984.613
2018-10-17T14:50:50.345Z,984.612
2018-10-17T14:52:49.637Z,984.602
2018-10-17T14:54:49.806Z,984.610
2018-10-17T14:56:50.184Z,984.616
2018-10-17T14:58:50.386Z,984.601
2018-10-17T15:00:50.555Z,984.568
2018-10-17T15:02:49.823Z,984.592
2018-10-17T15:04:50.246Z,984.592
2018-10-17T15:06:50.492Z,984.571
2018-10-17T15:08:49.660Z,984.560
2018-10-17T15:10:50.636Z,984.553
2018-10-17T15:12:49.625Z,984.545
2018-10-17T15:14:50.072Z,984.539
2018-10-17T15:16:50.768Z,984.541
2018-10-17T15:18:50.481Z,984.521
2018-10-17T15:20:49.691Z,984.523
2018-10-17T15:22:49.893Z,984.521
2018-10-17T15:24:50.440Z,984.537
2018-10-17T15:26:50.318Z,984.533
2018-10-17T15:28:50.439Z,984.557
2018-10-17T15:30:49.622Z,984.557
2018-10-17T15:32:49.813Z,984.589
2018-10-17T15:34:50.301Z,984.606
2018-10-17T15:36:49.817Z,984.610
2018-10-17T15:38:50.240Z,984.625
2018-10-17T15:40:50.422Z,984.625
2018-10-17T15:42:50.575Z,984.642
2018-10-17T15:44:49.762Z,984.637
2018-10-17T15:46:50.019Z,984.655
2018-10-17T15:48:50.183Z,984.688
2018-10-17T15:50:50.329Z,984.691
2018-10-17T15:52:50.635Z,984.696
2018-10-17T15:54:50.046Z,984.696
2018-10-17T15:56:50.337Z,984.711
2018-10-17T15:58:50.655Z,984.706
2018-10-17T16:00:50.091Z,984.765
2018-10-17T16:02:50.574Z,984.775
2018-10-17T16:04:50.260Z,984.789
2018-10-17T16:06:50.551Z,984.795
2018-10-17T16:08:49.854Z,984.826
2018-10-17T16:10:50.035Z,984.845
2018-10-17T16:12:50.320Z,984.836
2018-10-17T16:14:50.574Z,984.830
2018-10-17T16:16:50.157Z,984.823
2018-10-17T16:18:50.581Z,984.811
2018-10-17T16:20:49.718Z,984.827
2018-10-17T16:22:50.282Z,984.832
2018-10-17T16:24:50.172Z,984.864
2018-10-17T16:26:50.563Z,984.879
2018-10-17T16:28:49.790Z,984.911
2018-10-17T16:30:50.468Z,984.918
2018-10-17T16:32:50.423Z,984.929
2018-10-17T16:34:50.161Z,984.931
2018-10-17T16:36:49.652Z,984.944
2018-10-17T16:38:49.877Z,984.961
2018-10-17T16:40:50.422Z,984.953
2018-10-17T16:42:49.998Z,984.970
2018-10-17T16:44:50.235Z,984.992
2018-10-17T16:46:50.581Z,984.992
2018-10-17T16:48:49.804Z,985.024
2018-10-17T16:50:50.456Z,985.022
2018-10-17T16:52:50.398Z,985.042
2018-10-17T16:54:49.689Z,985.043
2018-10-17T16:56:50.048Z,985.071
2018-10-17T16:58:50.250Z,985.081
2018-10-17T17:00:50.424Z,985.113
2018-10-17T17:02:49.637Z,985.118
2018-10-17T17:04:50.104Z,985.141
2018-10-17T17:06:50.391Z,985.157
2018-10-17T17:08:49.632Z,985.176
2018-10-17T17:10:49.883Z,985.190
2018-10-17T17:12:50.021Z,985.192
2018-10-17T17:14:50.277Z,985.219
2018-10-17T17:16:49.717Z,985.275
2018-10-17T17:18:49.849Z,985.275
2018-10-17T17:20:49.979Z,985.296
2018-10-17T17:22:50.758Z,985.305
2018-10-17T17:24:49.857Z,985.287
2018-10-17T17:26:50.204Z,985.287
2018-10-17T17:28:50.415Z,985.255
2018-10-17T17:30:49.681Z,985.257
2018-10-17T17:32:49.886Z,985.242
2018-10-17T17:34:50.357Z,985.240
2018-10-17T17:36:49.619Z,985.257
2018-10-17T17:38:49.889Z,985.288
2018-10-17T17:40:50.065Z,985.291
2018-10-17T17:42:50.217Z,985.321
2018-10-17T17:44:50.305Z,985.340
2018-10-17T17:46:49.715Z,985.372
2018-10-17T17:48:49.843Z,985.372
2018-10-17T17:50:50.074Z,985.386
2018-10-17T17:52:50.205Z,985.405
2018-10-17T17:54:50.338Z,985.412
2018-10-17T17:56:49.734Z,985.459
2018-10-17T17:58:49.749Z,985.468
2018-10-17T18:00:49.861Z,985.501
2018-10-17T18:02:50.025Z,985.513
2018-10-17T18:04:49.617Z,985.523
2018-10-17T18:06:49.952Z,985.537
2018-10-17T18:08:50.113Z,985.561
2018-10-17T18:10:50.214Z,985.567
2018-10-17T18:12:50.302Z,985.581
2018-10-17T18:14:50.480Z,985.616
2018-10-17T18:16:49.986Z,985.617
2018-10-17T18:18:50.113Z,985.617
2018-10-17T18:20:50.247Z,985.659
2018-10-17T18:22:50.417Z,985.661
2018-10-17T18:24:50.612Z,985.661
2018-10-17T18:26:50.068Z,985.654
2018-10-17T18:28:50.199Z,985.647
2018-10-17T18:30:50.282Z,985.655
2018-10-17T18:32:50.557Z,985.659
2018-10-17T18:34:50.269Z,985.672
2018-10-17T18:36:49.667Z,985.697
2018-10-17T18:38:49.815Z,985.735
2018-10-17T18:40:49.942Z,985.765
2018-10-17T18:42:50.098Z,985.760
2018-10-17T18:44:50.290Z,985.773
2018-10-17T18:46:49.701Z,985.777
2018-10-17T18:48:49.870Z,985.788
2018-10-17T18:50:50.023Z,985.767
2018-10-17T18:52:50.131Z,985.769
2018-10-17T18:54:50.261Z,985.788
2018-10-17T18:56:49.681Z,985.787
2018-10-17T18:58:49.880Z,985.784
2018-10-17T19:00:50.059Z,985.780
2018-10-17T19:02:50.185Z,985.782
2018-10-17T19:04:49.622Z,985.803
2018-10-17T19:06:50.084Z,985.836
2018-10-17T19:08:50.224Z,985.836
2018-10-17T19:10:50.381Z,985.856
2018-10-17T19:12:50.489Z,985.870
2018-10-17T19:14:49.614Z,985.905
2018-10-17T19:16:49.976Z,985.924
2018-10-17T19:18:50.152Z,985.960
2018-10-17T19:20:50.335Z,985.959
2018-10-17T19:22:49.702Z,985.959
2018-10-17T19:24:50.321Z,985.993
2018-10-17T19:26:50.450Z,986.003
2018-10-17T19:28:49.625Z,986.023
2018-10-17T19:30:49.819Z,986.035
2018-10-17T19:32:49.962Z,986.054
2018-10-17T19:34:50.426Z,986.057
2018-10-17T19:36:49.745Z,986.069
2018-10-17T19:38:49.954Z,986.072
2018-10-17T19:40:50.160Z,986.079
2018-10-17T19:42:50.424Z,986.076
2018-10-17T19:44:49.616Z,986.071
2018-10-17T19:46:49.895Z,986.077
2018-10-17T19:48:50.131Z,986.099
2018-10-17T19:50:50.290Z,986.111
2018-10-17T19:52:50.582Z,986.148
2018-10-17T19:54:49.817Z,986.186
2018-10-17T19:56:50.117Z,986.198
2018-10-17T19:58:50.224Z,986.249
2018-10-17T20:00:50.484Z,986.268
2018-10-17T20:02:49.750Z,986.271
2018-10-17T20:04:50.218Z,986.276
2018-10-17T20:06:49.646Z,986.279
2018-10-17T20:08:49.847Z,986.272
2018-10-17T20:10:50.019Z,986.271
2018-10-17T20:12:50.187Z,986.272
2018-10-17T20:14:50.378Z,986.276
2018-10-17T20:16:49.746Z,986.270
2018-10-17T20:18:49.993Z,986.245
2018-10-17T20:20:50.130Z,986.239
2018-10-17T20:22:50.376Z,986.239
2018-10-17T20:24:50.639Z,986.258
2018-10-17T20:26:50.146Z,986.262
2018-10-17T20:28:50.396Z,986.270
2018-10-17T20:30:50.592Z,986.274
2018-10-17T20:32:49.628Z,986.299
2018-10-17T20:34:50.384Z,986.300
2018-10-17T20:36:49.953Z,986.296
2018-10-17T20:38:50.083Z,986.300
2018-10-17T20:40:50.289Z,986.304
2018-10-17T20:42:50.652Z,986.305
2018-10-17T20:44:49.831Z,986.305
2018-10-17T20:46:50.049Z,986.320
2018-10-17T20:48:50.265Z,986.326
2018-10-17T20:50:50.500Z,986.349
2018-10-17T20:52:49.728Z,986.366
2018-10-17T20:54:49.909Z,986.375
2018-10-17T20:56:50.347Z,986.375
2018-10-17T20:58:49.766Z,986.378
2018-10-17T21:00:50.087Z,986.385
2018-10-17T21:02:50.319Z,986.391
2018-10-17T21:04:49.949Z,986.387
2018-10-17T21:06:50.291Z,986.400
2018-10-17T21:08:50.386Z,986.411
2018-10-17T21:10:49.745Z,986.404
2018-10-17T21:12:49.869Z,986.396
2018-10-17T21:14:50.056Z,986.396
2018-10-17T21:16:50.441Z,986.394
2018-10-17T21:18:50.126Z,986.393
2018-10-17T21:20:50.046Z,986.405
2018-10-17T21:22:50.267Z,986.431
2018-10-17T21:24:50.588Z,986.428
2018-10-17T21:26:50.280Z,986.416
2018-10-17T21:28:50.021Z,986.416
2018-10-17T21:30:50.211Z,986.446
2018-10-17T21:32:50.380Z,986.459
2018-10-17T21:34:50.056Z,986.477
2018-10-17T21:36:50.474Z,986.477
2018-10-17T21:38:49.620Z,986.482
2018-10-17T21:40:49.770Z,986.478
2018-10-17T21:42:49.931Z,986.462
2018-10-17T21:44:49.848Z,986.463
2018-10-17T21:46:50.097Z,986.442
2018-10-17T21:48:50.176Z,986.436
2018-10-17T21:50:50.191Z,986.436
2018-10-17T21:52:50.347Z,986.434
2018-10-17T21:54:50.426Z,986.424
2018-10-17T21:56:49.711Z,986.429
2018-10-17T21:58:49.697Z,986.430
2018-10-17T22:00:49.708Z,986.435
2018-10-17T22:02:49.717Z,986.430
2018-10-17T22:04:50.039Z,986.413
2018-10-17T22:06:50.382Z,986.392
2018-10-17T22:08:49.618Z,986.390
2018-10-17T22:10:49.969Z,986.416
2018-10-17T22:12:50.153Z,986.431
2018-10-17T22:14:50.178Z,986.448
2018-10-17T22:16:50.511Z,986.449
2018-10-17T22:18:50.171Z,986.447
2018-10-17T22:20:49.725Z,986.454
2018-10-17T22:22:49.870Z,986.449
2018-10-17T22:24:49.968Z,986.443
2018-10-17T22:26:50.321Z,986.443
2018-10-17T22:28:50.429Z,986.438
2018-10-17T22:30:49.662Z,986.442
2018-10-17T22:32:49.842Z,986.446
2018-10-17T22:34:50.367Z,986.449
2018-10-17T22:36:49.707Z,986.464
2018-10-17T22:38:49.881Z,986.475
2018-10-17T22:40:50.143Z,986.477
2018-10-17T22:42:50.449Z,986.480
2018-10-17T22:44:50.570Z,986.480
2018-10-17T22:46:50.204Z,986.500
2018-10-17T22:48:50.439Z,986.508
2018-10-17T22:50:49.625Z,986.533
2018-10-17T22:52:49.811Z,986.536
2018-10-17T22:54:49.921Z,986.566
2018-10-17T22:56:50.236Z,986.567
2018-10-17T22:58:50.520Z,986.567
2018-10-17T23:00:49.769Z,986.597
2018-10-17T23:02:49.922Z,986.596
2018-10-17T23:04:50.356Z,986.600
2018-10-17T23:06:49.625Z,986.611
2018-10-17T23:08:49.789Z,986.634
2018-10-17T23:10:50.011Z,986.637
2018-10-17T23:12:50.175Z,986.650
2018-10-17T23:14:50.347Z,986.667
2018-10-17T23:16:49.711Z,986.667
2018-10-17T23:18:49.894Z,986.680
2018-10-17T23:20:50.134Z,986.666
2018-10-17T23:22:50.343Z,986.666
2018-10-17T23:24:50.371Z,986.668
2018-10-17T23:26:50.493Z,986.647
2018-10-17T23:28:50.446Z,986.621
2018-10-17T23:30:50.476Z,986.613
2018-10-17T23:32:50.425Z,986.587
2018-10-17T23:34:49.656Z,986.568
2018-10-17T23:36:49.898Z,986.570
2018-10-17T23:38:49.934Z,986.592
2018-10-17T23:40:49.920Z,986.592
2018-10-17T23:42:50.206Z,986.586
2018-10-17T23:44:50.218Z,986.586
2018-10-17T23:46:50.430Z,986.581
2018-10-17T23:48:50.443Z,986.580
2018-10-17T23:50:50.402Z,986.578
2018-10-17T23:52:49.677Z,986.551
2018-10-17T23:54:49.844Z,986.554
2018-10-17T23:56:50.193Z,986.545
2018-10-17T23:58:50.315Z,986.549
